createdAt,value
2023-03-18T00:01:18.998Z,100440.06
2023-03-18T00:03:49.485Z,100446.70
2023-03-18T00:06:18.839Z,100443.09
2023-03-18T00:08:47.528Z,100435.67
2023-03-18T00:11:18.591Z,100432.58
2023-03-18T00:13:48.591Z,100436.75
2023-03-18T00:16:18.338Z,100446.30
2023-03-18T00:18:47.036Z,100444.20
2023-03-18T00:21:17.013Z,100447.51
2023-03-18T00:23:45.604Z,100448.15
2023-03-18T00:26:14.508Z,100451.64
2023-03-18T00:28:42.939Z,100448.80
2023-03-18T00:31:13.826Z,100446.98
2023-03-18T00:33:46.054Z,100450.59
2023-03-18T00:36:16.117Z,100448.94
2023-03-18T00:38:47.444Z,100455.39
2023-03-18T00:41:21.922Z,100458.23
2023-03-18T00:43:54.286Z,100456.79
2023-03-18T00:46:29.655Z,100457.30
2023-03-18T00:49:02.283Z,100460.14
2023-03-18T00:51:33.231Z,100464.02
2023-03-18T00:54:04.711Z,100463.89
2023-03-18T00:56:33.369Z,100464.18
2023-03-18T00:59:02.404Z,100465.15
2023-03-18T01:01:31.504Z,100464.90
2023-03-18T01:04:02.110Z,100469.64
2023-03-18T01:06:34.094Z,100474.13
2023-03-18T01:09:02.878Z,100481.02
2023-03-18T01:11:31.770Z,100481.55
2023-03-18T01:14:00.690Z,100483.79
2023-03-18T01:16:30.311Z,100485.17
2023-03-18T01:18:58.747Z,100487.52
2023-03-18T01:21:26.989Z,100483.67
2023-03-18T01:24:00.885Z,100486.58
2023-03-18T01:26:30.345Z,100485.20
2023-03-18T01:29:00.252Z,100488.98
2023-03-18T01:31:29.981Z,100486.86
2023-03-18T01:34:02.459Z,100492.19
2023-03-18T01:36:38.139Z,100496.68
2023-03-18T01:39:10.381Z,100494.73
2023-03-18T01:41:40.391Z,100496.69
2023-03-18T01:44:14.422Z,100500.94
2023-03-18T01:46:47.096Z,100502.81
2023-03-18T01:49:37.063Z,100499.98
2023-03-18T01:52:22.226Z,100496.05
2023-03-18T01:54:59.969Z,100501.58
2023-03-18T01:57:32.862Z,100498.08
2023-03-18T02:00:02.215Z,100501.43
2023-03-18T02:02:35.207Z,100494.79
2023-03-18T02:05:06.441Z,100501.93
2023-03-18T02:07:35.301Z,100498.95
2023-03-18T02:10:11.826Z,100502.26
2023-03-18T02:12:44.228Z,100500.70
2023-03-18T02:15:16.766Z,100510.47
2023-03-18T02:17:54.086Z,100508.29
2023-03-18T02:20:28.373Z,100505.86
2023-03-18T02:23:06.679Z,100510.11
2023-03-18T02:25:47.998Z,100508.73
2023-03-18T02:28:23.300Z,100511.17
2023-03-18T02:30:57.248Z,100517.29
2023-03-18T02:33:28.919Z,100519.52
2023-03-18T02:36:04.592Z,100520.61
2023-03-18T02:38:35.473Z,100522.60
2023-03-18T02:41:15.372Z,100523.27
2023-03-18T02:43:44.712Z,100522.67
2023-03-18T02:46:35.644Z,100523.20
2023-03-18T02:49:05.327Z,100522.37
2023-03-18T02:51:37.071Z,100521.08
2023-03-18T02:54:12.620Z,100521.56
2023-03-18T02:56:42.835Z,100520.95
2023-03-18T02:59:14.003Z,100523.00
2023-03-18T03:01:44.083Z,100524.84
2023-03-18T03:04:12.715Z,100527.52
2023-03-18T03:06:42.861Z,100526.71
2023-03-18T03:09:14.173Z,100525.71
2023-03-18T03:11:43.595Z,100522.14
2023-03-18T03:14:16.582Z,100521.14
2023-03-18T03:16:46.817Z,100521.04
2023-03-18T03:19:16.811Z,100526.31
2023-03-18T03:21:45.320Z,100521.92
2023-03-18T03:24:13.803Z,100527.21
2023-03-18T03:26:46.484Z,100525.17
2023-03-18T03:29:14.771Z,100523.14
2023-03-18T03:31:42.946Z,100522.50
2023-03-18T03:34:12.081Z,100526.67
2023-03-18T03:36:40.977Z,100521.39
2023-03-18T03:39:10.859Z,100519.02
2023-03-18T03:41:39.044Z,100521.08
2023-03-18T03:44:07.444Z,100522.13
2023-03-18T03:46:37.622Z,100521.95
2023-03-18T03:49:06.873Z,100524.80
2023-03-18T03:51:35.095Z,100525.69
2023-03-18T03:54:03.661Z,100521.57
2023-03-18T03:56:32.418Z,100521.07
2023-03-18T03:59:00.888Z,100523.71
2023-03-18T04:01:40.330Z,100527.54
2023-03-18T04:04:08.726Z,100533.20
2023-03-18T04:06:37.193Z,100532.65
2023-03-18T04:09:05.983Z,100533.97
2023-03-18T04:11:34.882Z,100530.49
2023-03-18T04:14:03.129Z,100535.94
2023-03-18T04:16:32.069Z,100526.35
2023-03-18T04:19:01.373Z,100533.20
2023-03-18T04:21:30.871Z,100530.54
2023-03-18T04:23:59.402Z,100535.29
2023-03-18T04:26:28.593Z,100537.09
2023-03-18T04:29:05.820Z,100537.50
2023-03-18T04:31:34.374Z,100543.26
2023-03-18T04:34:03.632Z,100538.51
2023-03-18T04:36:32.833Z,100537.60
2023-03-18T04:39:01.014Z,100547.02
2023-03-18T04:41:29.782Z,100549.68
2023-03-18T04:44:00.758Z,100547.58
2023-03-18T04:46:36.429Z,100551.33
2023-03-18T04:49:06.722Z,100562.16
2023-03-18T04:51:35.850Z,100562.58
2023-03-18T04:54:05.227Z,100563.39
2023-03-18T04:56:34.447Z,100560.71
2023-03-18T04:59:03.295Z,100561.52
2023-03-18T05:01:34.003Z,100565.15
2023-03-18T05:04:02.903Z,100567.12
2023-03-18T05:06:39.316Z,100568.24
2023-03-18T05:09:13.362Z,100571.51
2023-03-18T05:11:45.430Z,100576.48
2023-03-18T05:14:23.612Z,100577.05
2023-03-18T05:16:52.058Z,100575.52
2023-03-18T05:19:20.786Z,100579.17
2023-03-18T05:21:56.152Z,100588.49
2023-03-18T05:24:25.848Z,100585.11
2023-03-18T05:27:00.307Z,100584.04
2023-03-18T05:29:34.067Z,100580.95
2023-03-18T05:32:17.085Z,100582.84
2023-03-18T05:34:46.073Z,100583.27
2023-03-18T05:37:15.701Z,100584.90
2023-03-18T05:39:48.072Z,100591.45
2023-03-18T05:42:18.243Z,100597.42
2023-03-18T05:44:47.091Z,100595.19
2023-03-18T05:47:16.039Z,100603.84
2023-03-18T05:49:53.267Z,100599.85
2023-03-18T05:52:24.923Z,100604.90
2023-03-18T05:54:55.869Z,100617.09
2023-03-18T05:57:28.548Z,100614.23
2023-03-18T06:00:03.238Z,100616.55
2023-03-18T06:02:43.941Z,100618.52
2023-03-18T06:05:13.121Z,100621.14
2023-03-18T06:07:41.486Z,100624.48
2023-03-18T06:10:12.387Z,100623.45
2023-03-18T06:12:41.788Z,100625.02
2023-03-18T06:15:12.050Z,100624.63
2023-03-18T06:17:42.330Z,100634.43
2023-03-18T06:20:11.927Z,100634.48
2023-03-18T06:22:40.524Z,100634.81
2023-03-18T06:25:10.196Z,100640.89
2023-03-18T06:27:41.384Z,100641.59
2023-03-18T06:30:25.226Z,100642.73
2023-03-18T06:32:57.264Z,100651.60
2023-03-18T06:35:32.812Z,100648.13
2023-03-18T06:38:01.635Z,100645.98
2023-03-18T06:40:30.897Z,100639.84
2023-03-18T06:42:59.364Z,100639.44
2023-03-18T06:45:38.370Z,100639.83
2023-03-18T06:48:09.681Z,100639.02
2023-03-18T06:50:42.320Z,100639.36
2023-03-18T06:53:19.126Z,100640.73
2023-03-18T06:55:49.821Z,100646.70
2023-03-18T06:58:19.136Z,100644.82
2023-03-18T07:00:58.894Z,100650.48
2023-03-18T07:03:30.185Z,100650.09
2023-03-18T07:05:58.465Z,100647.79
2023-03-18T07:08:29.349Z,100647.02
2023-03-18T07:10:57.911Z,100647.94
2023-03-18T07:13:27.140Z,100645.86
2023-03-18T07:15:56.860Z,100650.66
2023-03-18T07:18:25.295Z,100652.93
2023-03-18T07:20:55.160Z,100652.55
2023-03-18T07:23:23.959Z,100648.86
2023-03-18T07:25:52.725Z,100650.89
2023-03-18T07:28:21.329Z,100646.73
2023-03-18T07:30:52.418Z,100649.20
2023-03-18T07:33:26.137Z,100648.55
2023-03-18T07:35:55.668Z,100650.71
2023-03-18T07:38:24.470Z,100652.02
2023-03-18T07:40:52.602Z,100651.68
2023-03-18T07:43:20.992Z,100654.48
2023-03-18T07:45:51.040Z,100656.92
2023-03-18T07:48:20.489Z,100656.59
2023-03-18T07:50:48.689Z,100656.82
2023-03-18T07:53:19.232Z,100652.94
2023-03-18T07:55:47.614Z,100661.69
2023-03-18T07:58:15.898Z,100665.38
2023-03-18T08:00:45.246Z,100667.32
2023-03-18T08:03:15.054Z,100674.22
2023-03-18T08:05:44.667Z,100676.34
2023-03-18T08:08:12.908Z,100671.95
2023-03-18T08:10:43.133Z,100678.56
2023-03-18T08:13:13.179Z,100678.97
2023-03-18T08:15:41.542Z,100681.77
2023-03-18T08:18:10.746Z,100681.95
2023-03-18T08:20:40.059Z,100681.22
2023-03-18T08:23:09.044Z,100682.40
2023-03-18T08:25:38.458Z,100684.20
2023-03-18T08:28:07.776Z,100681.41
2023-03-18T08:30:36.036Z,100682.91
2023-03-18T08:33:04.885Z,100682.48
2023-03-18T08:35:34.369Z,100683.33
2023-03-18T08:38:07.022Z,100684.33
2023-03-18T08:40:39.857Z,100686.38
2023-03-18T08:43:08.755Z,100684.16
2023-03-18T08:45:39.310Z,100687.01
2023-03-18T08:48:08.431Z,100680.88
2023-03-18T08:50:42.649Z,100680.20
2023-03-18T08:53:11.566Z,100685.58
2023-03-18T08:55:40.848Z,100680.40
2023-03-18T08:58:09.186Z,100676.18
2023-03-18T09:00:39.147Z,100677.23
2023-03-18T09:03:07.902Z,100682.40
2023-03-18T09:05:36.630Z,100683.25
2023-03-18T09:08:05.422Z,100686.02
2023-03-18T09:10:35.878Z,100690.32
2023-03-18T09:13:05.673Z,100688.67
2023-03-18T09:15:34.756Z,100686.96
2023-03-18T09:18:12.161Z,100688.41
2023-03-18T09:20:41.301Z,100684.63
2023-03-18T09:23:11.638Z,100692.21
2023-03-18T09:25:42.881Z,100682.23
2023-03-18T09:28:11.111Z,100687.13
2023-03-18T09:30:42.642Z,100688.23
2023-03-18T09:33:11.833Z,100685.31
2023-03-18T09:35:42.887Z,100688.48
2023-03-18T09:38:18.152Z,100688.20
2023-03-18T09:40:58.725Z,100694.84
2023-03-18T09:43:53.413Z,100695.05
2023-03-18T09:46:25.033Z,100696.52
2023-03-18T09:49:12.266Z,100697.65
2023-03-18T09:52:18.519Z,100697.93
2023-03-18T09:54:52.769Z,100700.15
2023-03-18T09:57:28.763Z,100697.69
2023-03-18T10:00:20.604Z,100701.63
2023-03-18T10:02:53.336Z,100698.12
2023-03-18T10:05:31.640Z,100693.89
2023-03-18T10:08:04.918Z,100698.23
2023-03-18T10:10:41.564Z,100693.07
2023-03-18T10:13:15.986Z,100691.65
2023-03-18T10:15:46.362Z,100688.48
2023-03-18T10:18:32.431Z,100685.65
2023-03-18T10:21:00.453Z,100687.63
2023-03-18T10:23:41.979Z,100679.58
2023-03-18T10:26:38.482Z,100678.21
2023-03-18T10:29:38.089Z,100681.98
2023-03-18T10:32:10.459Z,100679.92
2023-03-18T10:34:46.274Z,100681.31
2023-03-18T10:37:36.214Z,100683.62
2023-03-18T10:40:16.097Z,100679.16
2023-03-18T10:42:44.744Z,100679.64
2023-03-18T10:45:24.824Z,100674.71
2023-03-18T10:47:59.399Z,100677.95
2023-03-18T10:50:31.499Z,100679.84
2023-03-18T10:53:20.108Z,100677.34
2023-03-18T10:56:02.827Z,100675.06
2023-03-18T10:58:31.199Z,100678.79
2023-03-18T11:00:59.580Z,100672.81
2023-03-18T11:03:52.880Z,100667.20
2023-03-18T11:06:31.393Z,100667.43
2023-03-18T11:09:08.595Z,100666.81
2023-03-18T11:11:40.180Z,100664.10
2023-03-18T11:14:21.185Z,100659.04
2023-03-18T11:17:00.366Z,100655.50
2023-03-18T11:19:32.454Z,100653.52
2023-03-18T11:22:12.043Z,100650.63
2023-03-18T11:24:42.839Z,100647.02
2023-03-18T11:27:16.064Z,100649.55
2023-03-18T11:29:49.836Z,100651.40
2023-03-18T11:32:24.877Z,100649.10
2023-03-18T11:35:00.789Z,100645.63
2023-03-18T11:37:30.129Z,100651.05
2023-03-18T11:40:14.683Z,100650.60
2023-03-18T11:42:43.318Z,100649.02
2023-03-18T11:45:44.425Z,100649.33
2023-03-18T11:48:40.621Z,100646.78
2023-03-18T11:51:29.922Z,100646.36
2023-03-18T11:54:04.811Z,100644.68
2023-03-18T11:56:34.733Z,100644.91
2023-03-18T11:59:31.489Z,100644.56
2023-03-18T12:02:18.971Z,100646.10
2023-03-18T12:04:53.162Z,100650.09
2023-03-18T12:07:40.710Z,100644.45
2023-03-18T12:10:36.522Z,100644.38
2023-03-18T12:13:45.751Z,100639.37
2023-03-18T12:16:56.815Z,100640.48
2023-03-18T12:19:50.971Z,100641.27
2023-03-18T12:22:27.769Z,100636.86
2023-03-18T12:25:13.742Z,100633.42
2023-03-18T12:28:26.523Z,100633.95
2023-03-18T12:31:33.630Z,100630.60
2023-03-18T12:34:04.889Z,100622.48
2023-03-18T12:36:48.619Z,100620.10
2023-03-18T12:39:30.972Z,100617.33
2023-03-18T12:42:17.064Z,100618.34
2023-03-18T12:45:02.095Z,100619.90
2023-03-18T12:47:48.424Z,100625.67
2023-03-18T12:50:16.867Z,100626.53
2023-03-18T12:52:47.535Z,100626.53
2023-03-18T12:55:31.888Z,100630.67
2023-03-18T12:58:00.571Z,100625.89
2023-03-18T13:00:59.922Z,100626.95
2023-03-18T13:03:35.412Z,100624.81
2023-03-18T13:06:29.280Z,100621.34
2023-03-18T13:09:17.298Z,100623.48
2023-03-18T13:11:59.903Z,100619.37
2023-03-18T13:14:46.201Z,100621.72
2023-03-18T13:17:24.504Z,100622.46
2023-03-18T13:19:52.791Z,100622.00
2023-03-18T13:22:47.755Z,100618.36
2023-03-18T13:25:51.567Z,100621.45
2023-03-18T13:28:44.831Z,100624.14
2023-03-18T13:31:31.121Z,100624.13
2023-03-18T13:34:04.332Z,100623.68
2023-03-18T13:36:54.580Z,100628.05
2023-03-18T13:39:42.409Z,100624.43
2023-03-18T13:42:28.850Z,100623.64
2023-03-18T13:45:42.519Z,100621.61
2023-03-18T13:48:40.584Z,100627.63
2023-03-18T13:51:46.015Z,100626.17
2023-03-18T13:54:18.582Z,100628.96
2023-03-18T13:56:50.231Z,100623.07
2023-03-18T13:59:34.384Z,100625.35
2023-03-18T14:02:40.222Z,100630.53
2023-03-18T14:05:34.181Z,100622.95
2023-03-18T14:08:05.499Z,100631.09
2023-03-18T14:10:33.718Z,100629.67
2023-03-18T14:13:25.948Z,100627.32
2023-03-18T14:15:56.235Z,100629.38
2023-03-18T14:18:27.880Z,100629.33
2023-03-18T14:20:59.990Z,100635.02
2023-03-18T14:23:43.941Z,100636.87
2023-03-18T14:26:26.740Z,100635.81
2023-03-18T14:28:56.267Z,100635.60
2023-03-18T14:31:32.838Z,100633.07
2023-03-18T14:34:05.616Z,100637.92
2023-03-18T14:36:54.260Z,100635.93
2023-03-18T14:39:35.027Z,100636.05
2023-03-18T14:42:05.542Z,100637.98
2023-03-18T14:44:46.335Z,100643.64
2023-03-18T14:47:31.935Z,100645.27
2023-03-18T14:50:25.969Z,100652.01
2023-03-18T14:53:00.756Z,100653.60
2023-03-18T14:55:32.574Z,100661.25
2023-03-18T14:58:01.404Z,100662.24
2023-03-18T15:00:36.435Z,100660.65
2023-03-18T15:03:09.563Z,100667.20
2023-03-18T15:05:40.262Z,100665.42
2023-03-18T15:08:47.650Z,100665.53
2023-03-18T15:11:16.768Z,100668.66
2023-03-18T15:13:46.709Z,100678.38
2023-03-18T15:16:18.923Z,100682.09
2023-03-18T15:18:53.132Z,100681.70
2023-03-18T15:21:28.943Z,100685.85
2023-03-18T15:24:00.302Z,100687.17
2023-03-18T15:26:28.787Z,100689.64
2023-03-18T15:28:59.317Z,100690.34
2023-03-18T15:31:30.023Z,100695.80
2023-03-18T15:34:19.108Z,100689.54
2023-03-18T15:36:58.138Z,100693.55
2023-03-18T15:39:36.275Z,100698.53
2023-03-18T15:42:19.360Z,100701.67
2023-03-18T15:44:58.624Z,100708.32
2023-03-18T15:47:31.824Z,100704.73
2023-03-18T15:50:24.688Z,100701.59
2023-03-18T15:53:02.557Z,100700.39
2023-03-18T15:55:37.541Z,100705.41
2023-03-18T15:58:06.187Z,100704.68
2023-03-18T16:00:34.943Z,100707.93
2023-03-18T16:03:05.866Z,100713.68
2023-03-18T16:05:35.026Z,100718.11
2023-03-18T16:08:03.882Z,100715.13
2023-03-18T16:10:32.732Z,100714.77
2023-03-18T16:13:01.669Z,100717.27
2023-03-18T16:15:30.010Z,100715.16
2023-03-18T16:18:00.423Z,100719.59
2023-03-18T16:20:30.017Z,100720.68
2023-03-18T16:22:59.821Z,100723.27
2023-03-18T16:25:28.099Z,100725.55
2023-03-18T16:27:57.607Z,100731.26
2023-03-18T16:30:28.050Z,100728.23
2023-03-18T16:32:56.935Z,100724.06
2023-03-18T16:35:32.813Z,100730.55
2023-03-18T16:38:01.263Z,100729.19
2023-03-18T16:40:31.876Z,100726.36
2023-03-18T16:43:02.326Z,100724.05
2023-03-18T16:45:32.379Z,100723.10
2023-03-18T16:48:07.196Z,100725.26
2023-03-18T16:50:37.446Z,100721.70
2023-03-18T16:53:22.051Z,100724.38
2023-03-18T16:55:51.995Z,100720.70
2023-03-18T16:58:28.230Z,100723.21
2023-03-18T17:00:57.215Z,100723.08
2023-03-18T17:03:26.328Z,100724.02
2023-03-18T17:05:58.644Z,100726.93
2023-03-18T17:08:27.087Z,100721.95
2023-03-18T17:10:56.956Z,100724.04
2023-03-18T17:13:33.271Z,100725.63
2023-03-18T17:16:01.980Z,100729.36
2023-03-18T17:18:30.298Z,100731.92
2023-03-18T17:21:05.612Z,100730.06
2023-03-18T17:23:34.478Z,100731.21
2023-03-18T17:26:03.081Z,100730.41
2023-03-18T17:28:39.432Z,100729.04
2023-03-18T17:31:07.805Z,100726.00
2023-03-18T17:33:42.134Z,100727.05
2023-03-18T17:36:11.134Z,100725.08
2023-03-18T17:38:39.195Z,100727.14
2023-03-18T17:41:19.700Z,100727.61
2023-03-18T17:43:52.549Z,100731.11
2023-03-18T17:46:20.661Z,100730.71
2023-03-18T17:48:49.113Z,100733.00
2023-03-18T17:51:23.969Z,100726.03
2023-03-18T17:53:59.023Z,100730.20
2023-03-18T17:56:28.083Z,100731.77
2023-03-18T17:58:56.873Z,100730.98
2023-03-18T18:01:27.420Z,100726.27
2023-03-18T18:03:56.344Z,100729.26
2023-03-18T18:06:27.301Z,100727.71
2023-03-18T18:08:59.026Z,100727.52
2023-03-18T18:11:35.579Z,100724.92
2023-03-18T18:14:25.130Z,100728.71
2023-03-18T18:16:59.700Z,100726.40
2023-03-18T18:19:30.740Z,100729.66
2023-03-18T18:22:03.639Z,100731.20
2023-03-18T18:24:33.607Z,100730.84
2023-03-18T18:27:04.582Z,100734.08
2023-03-18T18:29:34.998Z,100732.31
2023-03-18T18:32:06.850Z,100729.83
2023-03-18T18:34:36.558Z,100735.83
2023-03-18T18:37:05.047Z,100734.15
2023-03-18T18:39:33.234Z,100739.30
2023-03-18T18:42:10.202Z,100741.57
2023-03-18T18:44:38.892Z,100741.30
2023-03-18T18:47:20.071Z,100738.02
2023-03-18T18:49:52.352Z,100741.40
2023-03-18T18:52:20.721Z,100743.42
2023-03-18T18:54:49.864Z,100741.40
2023-03-18T18:57:29.261Z,100744.55
2023-03-18T18:59:58.298Z,100740.02
2023-03-18T19:02:34.119Z,100737.88
2023-03-18T19:05:04.847Z,100737.80
2023-03-18T19:07:33.889Z,100743.11
2023-03-18T19:10:02.235Z,100741.73
2023-03-18T19:12:31.221Z,100743.99
2023-03-18T19:14:59.913Z,100741.32
2023-03-18T19:17:28.509Z,100743.00
2023-03-18T19:19:56.996Z,100743.24
2023-03-18T19:22:26.495Z,100746.89
2023-03-18T19:24:54.778Z,100742.35
2023-03-18T19:27:28.041Z,100742.35
2023-03-18T19:29:58.915Z,100740.95
2023-03-18T19:32:27.501Z,100738.89
2023-03-18T19:34:58.648Z,100737.52
2023-03-18T19:37:29.356Z,100731.67
2023-03-18T19:39:58.311Z,100733.29
2023-03-18T19:42:27.289Z,100731.86
2023-03-18T19:44:56.698Z,100727.18
2023-03-18T19:47:28.361Z,100729.70
2023-03-18T19:49:56.790Z,100729.79
2023-03-18T19:52:28.785Z,100730.84
2023-03-18T19:54:57.783Z,100728.23
2023-03-18T19:57:29.971Z,100724.58
2023-03-18T20:00:01.403Z,100723.40
2023-03-18T20:02:31.589Z,100722.73
2023-03-18T20:05:01.915Z,100727.90
2023-03-18T20:07:32.689Z,100724.59
2023-03-18T20:10:01.182Z,100721.92
2023-03-18T20:12:40.448Z,100720.02
2023-03-18T20:15:16.605Z,100718.70
2023-03-18T20:17:45.985Z,100717.86
2023-03-18T20:20:17.844Z,100717.80
2023-03-18T20:22:53.033Z,100709.77
2023-03-18T20:25:36.660Z,100708.44
2023-03-18T20:28:08.099Z,100703.39
2023-03-18T20:30:37.883Z,100699.89
2023-03-18T20:33:07.488Z,100697.16
2023-03-18T20:35:42.968Z,100688.48
2023-03-18T20:38:17.672Z,100683.24
2023-03-18T20:40:47.897Z,100680.20
2023-03-18T20:43:20.068Z,100680.73
2023-03-18T20:45:51.608Z,100681.33
2023-03-18T20:48:22.388Z,100675.15
2023-03-18T20:50:52.064Z,100674.26
2023-03-18T20:53:25.060Z,100668.09
2023-03-18T20:55:53.227Z,100665.05
2023-03-18T20:58:25.823Z,100662.19
2023-03-18T21:00:54.863Z,100662.14
2023-03-18T21:03:25.350Z,100667.75
2023-03-18T21:05:56.283Z,100662.66
2023-03-18T21:08:25.392Z,100663.77
2023-03-18T21:10:54.275Z,100655.86
2023-03-18T21:13:39.247Z,100658.85
2023-03-18T21:16:11.695Z,100654.29
2023-03-18T21:18:45.629Z,100656.09
2023-03-18T21:21:21.137Z,100653.66
2023-03-18T21:23:49.471Z,100649.29
2023-03-18T21:26:18.366Z,100649.15
2023-03-18T21:28:48.056Z,100645.86
2023-03-18T21:31:31.612Z,100640.30
2023-03-18T21:34:00.283Z,100635.98
2023-03-18T21:36:29.280Z,100639.15
2023-03-18T21:38:57.972Z,100640.34
2023-03-18T21:41:28.190Z,100637.37
2023-03-18T21:43:56.306Z,100635.31
2023-03-18T21:46:27.023Z,100636.44
2023-03-18T21:48:56.128Z,100632.98
2023-03-18T21:51:38.731Z,100632.41
2023-03-18T21:54:26.337Z,100629.52
2023-03-18T21:56:55.436Z,100628.63
2023-03-18T21:59:23.779Z,100631.96
2023-03-18T22:01:52.868Z,100630.56
2023-03-18T22:04:23.596Z,100627.34
2023-03-18T22:06:52.670Z,100622.91
2023-03-18T22:09:23.292Z,100625.00
2023-03-18T22:11:51.578Z,100621.91
2023-03-18T22:14:19.751Z,100617.25
2023-03-18T22:16:48.433Z,100618.41
2023-03-18T22:19:17.695Z,100613.08
2023-03-18T22:21:47.650Z,100614.84
2023-03-18T22:24:15.883Z,100611.69
2023-03-18T22:26:44.020Z,100609.36
2023-03-18T22:29:13.080Z,100609.17
2023-03-18T22:31:43.879Z,100607.91
2023-03-18T22:34:38.755Z,100608.11
2023-03-18T22:37:11.732Z,100610.10
2023-03-18T22:39:39.937Z,100610.38
2023-03-18T22:42:10.375Z,100610.94
2023-03-18T22:44:40.053Z,100612.89
2023-03-18T22:47:16.662Z,100613.58
2023-03-18T22:49:45.344Z,100607.88
2023-03-18T22:52:21.316Z,100606.33
2023-03-18T22:54:58.493Z,100605.46
2023-03-18T22:57:27.655Z,100604.42
2023-03-18T22:59:56.760Z,100601.90
2023-03-18T23:02:27.483Z,100603.36
2023-03-18T23:04:55.611Z,100601.26
2023-03-18T23:07:28.717Z,100596.68
2023-03-18T23:09:58.632Z,100596.58
2023-03-18T23:12:30.352Z,100595.95
2023-03-18T23:15:04.042Z,100598.33
2023-03-18T23:17:32.405Z,100595.60
2023-03-18T23:20:00.813Z,100594.48
2023-03-18T23:22:33.725Z,100594.11
2023-03-18T23:25:02.185Z,100594.77
2023-03-18T23:27:30.764Z,100593.19
2023-03-18T23:29:59.358Z,100587.92
2023-03-18T23:32:27.968Z,100586.98
2023-03-18T23:34:56.231Z,100584.13
2023-03-18T23:37:24.777Z,100585.52
2023-03-18T23:39:53.107Z,100583.30
2023-03-18T23:42:23.142Z,100579.13
2023-03-18T23:44:51.332Z,100575.13
2023-03-18T23:47:20.051Z,100575.94
2023-03-18T23:49:48.577Z,100575.86
2023-03-18T23:52:16.849Z,100573.18
2023-03-18T23:54:45.338Z,100572.11
2023-03-18T23:57:14.340Z,100567.79
2023-03-18T23:59:42.617Z,100572.15
